Alamo, Indiana
Current Conditions -  °F | °C
As of 3:55 PM on Saturday 20 Dec 2014 (Local Time) from K4I7 Reporting Station
Overcast Overcast  
Wind Chill:   Ceiling: 2500
Heat Index:   Visibility: 7mi
Dew Point: -6°   Wind: 0mph
Humidity: 64%   Direction: NA
Pressure: 30.26"   Gusts: NA
Location:  39.98°N, 87.06°W
Report Text: K4I7 202055Z AUTO 00000KT 7SM BKN025 OVC060 00/M06 A3026 RMK AO2
Loading
Personal Weather Stations






























Interactive Weather Map New forecast layout! Learn more

10-Day Weather Forecast

Advertisements
Track Severe Weather on mobile